Time;durP1;ratioP1;P1;durP2;ratioP2;P2;SDS_P1;SDS_P2;PMS_P1;PMS_P2;Temp;Humidity;BMP_temperature;BMP_pressure;BME280_temperature;BME280_humidity;BME280_pressure;Samples;Min_cycle;Max_cycle;Signal;HPM_P1;HPM_P2
2022/04/25 00:01:10;;;;;;;37.83;14.85;;;;;;;13.72;70.85;98736.78;4999071;28;20027;-83
2022/04/25 00:03:36;;;;;;;34.20;10.40;;;;;;;14.11;68.71;98736.66;5010719;28;20109;-82
2022/04/25 00:06:02;;;;;;;26.35;8.98;;;;;;;14.48;67.58;98737.19;5009375;28;20084;-82
2022/04/25 00:08:28;;;;;;;30.42;10.52;;;;;;;14.45;67.56;98727.53;5011468;28;20464;-82
2022/04/25 00:10:53;;;;;;;28.13;9.68;;;;;;;14.60;66.71;98740.63;5004541;28;20056;-82
2022/04/25 00:13:19;;;;;;;31.77;10.32;;;;;;;14.70;66.12;98744.75;5012190;28;20026;-82
2022/04/25 00:15:44;;;;;;;32.80;9.27;;;;;;;14.93;65.46;98737.47;5013879;28;20380;-82
2022/04/25 00:18:10;;;;;;;35.67;10.55;;;;;;;15.08;64.99;98736.44;5010124;28;20022;-81
2022/04/25 00:20:36;;;;;;;31.33;9.95;;;;;;;15.21;64.46;98739.81;5007821;28;20026;-83
2022/04/25 00:23:04;;;;;;;26.08;11.13;;;;;;;15.12;64.58;98744.94;4994048;28;20375;-81
2022/04/25 00:25:33;;;;;;;39.20;12.38;;;;;;;14.71;66.12;98745.59;5010027;28;20029;-82
2022/04/25 00:28:00;;;;;;;31.10;12.60;;;;;;;14.56;66.13;98736.13;5014862;28;20021;-83
2022/04/25 00:30:28;;;;;;;38.40;13.68;;;;;;;14.83;65.22;98734.13;5013436;28;20550;-82
2022/04/25 00:32:54;;;;;;;37.78;13.02;;;;;;;15.08;64.44;98738.44;5014807;28;20529;-82
2022/04/25 00:35:20;;;;;;;34.42;13.55;;;;;;;15.18;64.33;98736.97;4997319;28;20026;-82
2022/04/25 00:37:45;;;;;;;34.45;13.43;;;;;;;15.29;63.70;98738.69;5013750;28;20420;-82
2022/04/25 00:40:11;;;;;;;37.97;13.82;;;;;;;14.65;65.37;98741.47;4992892;28;20058;-69
2022/04/25 00:42:36;;;;;;;38.95;13.85;;;;;;;14.58;65.83;98733.72;4995027;28;20026;-69
2022/04/25 00:45:02;;;;;;;31.63;9.77;;;;;;;14.76;64.97;98734.00;4995160;28;20058;-70
2022/04/25 00:47:29;;;;;;;24.85;9.75;;;;;;;14.56;65.43;98731.31;4995158;28;20050;-68
2022/04/25 00:49:55;;;;;;;25.50;8.15;;;;;;;13.90;67.97;98749.19;4994495;28;20484;-69
2022/04/25 00:52:21;;;;;;;29.38;9.43;;;;;;;13.51;69.65;98748.47;5014375;28;20064;-69
2022/04/25 00:54:46;;;;;;;27.85;9.52;;;;;;;13.06;71.09;98754.38;4996882;28;20029;-68
2022/04/25 00:57:12;;;;;;;26.15;10.90;;;;;;;12.67;72.64;98749.56;5005026;28;20109;-69
2022/04/25 00:59:39;;;;;;;24.58;10.52;;;;;;;12.20;74.34;98754.09;4996715;28;20084;-68
2022/04/25 01:02:05;;;;;;;31.30;11.65;;;;;;;12.07;75.25;98753.41;5002291;28;20132;-68
2022/04/25 01:04:31;;;;;;;28.33;9.82;;;;;;;11.76;76.27;98752.19;5008017;28;20499;-68
2022/04/25 01:06:57;;;;;;;28.83;9.77;;;;;;;11.76;76.49;98752.19;4991560;28;20109;-69
2022/04/25 01:09:25;;;;;;;24.77;9.52;;;;;;;11.60;77.53;98761.38;4994119;28;20042;-70
2022/04/25 01:11:52;;;;;;;30.65;10.82;;;;;;;11.52;77.50;98765.16;4994985;28;20038;-69
2022/04/25 01:14:23;;;;;;;32.22;11.13;;;;;;;11.43;78.17;98772.91;4994633;28;20026;-68
2022/04/25 01:16:48;;;;;;;36.97;9.32;;;;;;;11.76;77.50;98761.38;4994409;28;20046;-68
2022/04/25 01:19:14;;;;;;;29.85;10.05;;;;;;;11.80;76.85;98748.28;4994543;28;20026;-68
2022/04/25 01:21:49;;;;;;;25.95;9.70;;;;;;;11.84;77.35;98764.38;4994238;28;20026;-68
2022/04/25 01:27:17;;;;;;;30.73;11.35;;;;;;;11.69;77.93;98763.19;4994699;28;20042;-69
2022/04/25 01:29:53;;;;;;;21.45;11.93;;;;;;;11.48;79.16;98759.47;5014011;28;20030;-68
2022/04/25 01:32:21;;;;;;;31.00;11.35;;;;;;;11.57;78.76;98762.09;5011587;28;20026;-69
2022/04/25 01:34:47;;;;;;;34.40;13.95;;;;;;;11.38;78.84;98749.59;5006296;28;20052;-68
2022/04/25 01:37:15;;;;;;;30.02;11.82;;;;;;;11.33;79.66;98754.66;4999248;28;20477;-68
2022/04/25 01:39:46;;;;;;;27.20;11.88;;;;;;;11.66;78.43;98748.72;5006012;28;20034;-69
2022/04/25 01:42:13;;;;;;;27.65;12.20;;;;;;;11.77;77.27;98748.19;4976656;28;20026;-68
2022/04/25 01:44:39;;;;;;;23.45;11.40;;;;;;;11.69;77.79;98741.59;4994077;28;20480;-69
2022/04/25 01:47:06;;;;;;;21.52;10.43;;;;;;;11.75;77.32;98744.94;4993911;28;20026;-68
2022/04/25 01:49:36;;;;;;;25.70;11.25;;;;;;;11.96;76.18;98747.47;4976126;28;20033;-68
2022/04/25 01:52:16;;;;;;;18.98;10.90;;;;;;;12.11;75.55;98753.47;4993931;28;20081;-67
2022/04/25 01:54:43;;;;;;;21.75;10.25;;;;;;;11.97;75.50;98740.69;4976220;28;20034;-69
2022/04/25 01:57:08;;;;;;;27.35;10.27;;;;;;;11.34;78.10;98750.66;4998711;28;20116;-68
2022/04/25 01:59:34;;;;;;;31.50;11.48;;;;;;;11.17;78.85;98751.81;4992922;28;20055;-68
2022/04/25 02:02:01;;;;;;;37.60;11.40;;;;;;;11.03;80.09;98746.59;4982686;28;20085;-68
2022/04/25 02:04:27;;;;;;;36.55;13.30;;;;;;;10.93;81.17;98747.94;4993741;28;20488;-68
2022/04/25 02:06:53;;;;;;;32.72;11.50;;;;;;;11.01;80.75;98735.78;5006729;28;20088;-69
2022/04/25 02:09:20;;;;;;;36.08;13.88;;;;;;;10.84;82.17;98741.66;5009289;28;20025;-68
2022/04/25 02:11:46;;;;;;;24.13;12.48;;;;;;;10.74;82.52;98752.19;5012129;28;20110;-68
2022/04/25 02:14:11;;;;;;;29.17;12.73;;;;;;;10.63;83.07;98751.06;5004704;28;20121;-68
2022/04/25 02:16:37;;;;;;;21.33;13.02;;;;;;;10.60;83.57;98752.56;4992854;28;20030;-68
2022/04/25 02:19:03;;;;;;;32.97;12.23;;;;;;;10.57;83.69;98744.91;4975481;28;20061;-68
2022/04/25 02:21:28;;;;;;;33.03;13.75;;;;;;;10.73;83.39;98752.53;4992187;28;20054;-68
2022/04/25 02:23:54;;;;;;;25.33;13.38;;;;;;;10.72;83.53;98751.72;4995773;28;20492;-69
2022/04/25 02:26:19;;;;;;;31.58;12.13;;;;;;;10.76;84.17;98752.66;4994956;28;20034;-68
2022/04/25 02:28:45;;;;;;;32.63;15.70;;;;;;;10.64;84.71;98749.88;4985772;28;20089;-69
2022/04/25 02:31:11;;;;;;;33.90;17.23;;;;;;;10.66;84.70;98753.13;4993314;28;20022;-68
2022/04/25 02:33:36;;;;;;;28.33;14.32;;;;;;;10.73;84.13;98749.75;5007949;28;20036;-71
2022/04/25 02:36:06;;;;;;;45.25;13.95;;;;;;;10.72;84.96;98756.50;5011997;28;20060;-69
2022/04/25 02:38:36;;;;;;;34.13;14.95;;;;;;;10.67;85.18;98754.75;5012696;28;20029;-68
2022/04/25 02:41:05;;;;;;;28.13;11.65;;;;;;;10.60;85.48;98754.53;4998726;28;20452;-68
2022/04/25 02:43:39;;;;;;;30.60;12.43;;;;;;;10.50;85.98;98751.09;4994328;28;20030;-68
2022/04/25 02:46:07;;;;;;;26.83;13.05;;;;;;;10.42;86.07;98753.97;5000508;28;20420;-69
2022/04/25 02:48:34;;;;;;;31.05;14.52;;;;;;;10.34;86.70;98747.31;4994693;28;20467;-68
2022/04/25 02:51:00;;;;;;;41.13;16.05;;;;;;;10.39;86.38;98755.50;4994779;28;20088;-68
2022/04/25 02:53:25;;;;;;;30.10;15.05;;;;;;;10.35;86.71;98751.75;5007378;28;20033;-69
2022/04/25 02:55:53;;;;;;;27.75;13.45;;;;;;;10.49;86.61;98754.22;4994893;28;20126;-68
2022/04/25 02:58:20;;;;;;;29.40;13.98;;;;;;;10.42;86.67;98759.56;5004475;28;20511;-69
2022/04/25 03:00:47;;;;;;;32.78;14.57;;;;;;;10.38;86.41;98759.47;5012314;28;20481;-68
2022/04/25 03:03:17;;;;;;;32.83;14.80;;;;;;;10.38;87.03;98760.25;4992742;28;20034;-69
2022/04/25 03:05:45;;;;;;;33.40;14.65;;;;;;;10.32;86.95;98767.25;4991804;28;20033;-68
2022/04/25 03:08:12;;;;;;;31.85;13.70;;;;;;;10.40;86.50;98771.91;5002543;28;20615;-68
2022/04/25 03:10:38;;;;;;;33.83;15.88;;;;;;;10.25;86.64;98761.44;5009475;28;20026;-68
2022/04/25 03:13:07;;;;;;;41.10;15.57;;;;;;;10.21;87.26;98766.91;5000955;28;20448;-68
2022/04/25 03:15:34;;;;;;;40.97;15.32;;;;;;;10.26;87.29;98763.06;5007212;28;20029;-69
2022/04/25 03:18:01;;;;;;;38.10;15.13;;;;;;;10.16;87.61;98758.75;5011965;28;20025;-68
2022/04/25 03:20:28;;;;;;;29.83;15.63;;;;;;;10.14;87.99;98755.50;4994070;28;20061;-68
2022/04/25 03:22:55;;;;;;;36.58;13.93;;;;;;;10.16;87.65;98752.34;5003205;28;20026;-69
2022/04/25 03:25:20;;;;;;;28.80;14.40;;;;;;;10.18;87.76;98752.81;4992512;28;20050;-68
2022/04/25 03:27:46;;;;;;;35.92;16.92;;;;;;;10.20;87.67;98754.09;4998847;28;20080;-69
2022/04/25 03:30:11;;;;;;;33.63;13.80;;;;;;;10.25;87.60;98753.06;4994352;28;20037;-69
2022/04/25 03:32:37;;;;;;;38.88;15.30;;;;;;;10.39;86.84;98752.69;4995513;28;20567;-69
2022/04/25 03:35:03;;;;;;;35.92;16.92;;;;;;;10.62;86.18;98761.41;4985196;28;20081;-69
2022/04/25 03:37:30;;;;;;;30.13;14.48;;;;;;;10.53;85.81;98735.56;4991965;28;20490;-69
2022/04/25 03:39:58;;;;;;;33.45;13.65;;;;;;;10.72;84.86;98750.91;4974643;28;20023;-68
2022/04/25 03:42:24;;;;;;;35.67;12.65;;;;;;;10.85;84.11;98751.69;4991681;28;20027;-69
2022/04/25 03:44:50;;;;;;;35.97;14.50;;;;;;;10.79;84.10;98751.09;4991991;28;20025;-69
2022/04/25 03:47:16;;;;;;;31.85;13.13;;;;;;;10.67;84.38;98752.78;4991820;28;20030;-69
2022/04/25 03:49:41;;;;;;;40.13;13.48;;;;;;;10.63;85.32;98751.84;4986452;28;20068;-68
2022/04/25 03:52:07;;;;;;;26.77;12.57;;;;;;;10.79;84.34;98751.94;5005653;28;20117;-71
2022/04/25 03:57:17;;;;;;;38.55;16.15;;;;;;;11.31;81.95;98737.41;4995470;28;20117;-69
2022/04/25 03:59:42;;;;;;;39.17;14.20;;;;;;;11.46;80.95;98738.56;4995415;28;20492;-68
2022/04/25 04:02:08;;;;;;;27.58;14.13;;;;;;;11.58;80.05;98716.09;5004570;28;20025;-69
2022/04/25 04:04:33;;;;;;;29.88;12.15;;;;;;;11.83;79.66;98715.13;4993205;28;20030;-70
2022/04/25 04:06:59;;;;;;;27.67;10.57;;;;;;;12.08;77.83;98701.75;4996885;28;20033;-68
2022/04/25 04:12:10;;;;;;;24.52;11.45;;;;;;;11.84;78.93;98703.56;5002889;28;20037;-68
2022/04/25 04:14:36;;;;;;;42.85;13.57;;;;;;;11.94;79.03;98694.63;4999685;28;20038;-69
2022/04/25 04:17:02;;;;;;;38.88;12.13;;;;;;;11.99;78.82;98715.13;5004788;28;20026;-69
2022/04/25 04:19:28;;;;;;;31.55;13.85;;;;;;;11.46;80.76;98738.56;4994956;28;20062;-69
2022/04/25 04:21:53;;;;;;;40.53;14.88;;;;;;;11.07;83.06;98727.94;5002791;28;20021;-68
2022/04/25 04:24:19;;;;;;;40.13;15.00;;;;;;;11.21;83.50;98725.53;4994999;28;20065;-69
2022/04/25 04:26:44;;;;;;;32.70;14.57;;;;;;;11.44;82.35;98715.72;5007602;28;20405;-68
2022/04/25 04:29:10;;;;;;;36.70;13.00;;;;;;;11.30;82.74;98719.78;5012102;28;20028;-70
2022/04/25 04:31:35;;;;;;;41.92;15.48;;;;;;;11.14;83.37;98724.53;4996294;28;20461;-68
2022/04/25 04:34:01;;;;;;;44.53;16.00;;;;;;;11.25;83.32;98711.66;4994768;28;20018;-69
2022/04/25 04:36:26;;;;;;;37.75;15.82;;;;;;;11.33;83.03;98701.44;5005860;28;20054;-68
2022/04/25 04:38:52;;;;;;;26.63;13.00;;;;;;;11.23;83.24;98697.19;4994626;28;20018;-69
2022/04/25 04:41:18;;;;;;;27.00;12.90;;;;;;;11.28;83.54;98696.94;4988107;28;20440;-69
2022/04/25 04:43:43;;;;;;;32.60;12.55;;;;;;;11.20;83.78;98697.91;5011967;28;20021;-68
2022/04/25 04:46:10;;;;;;;35.78;13.95;;;;;;;11.28;83.68;98693.31;5013266;28;20026;-68
2022/04/25 04:48:35;;;;;;;26.48;13.70;;;;;;;11.44;84.18;98684.94;4996940;28;20036;-68
2022/04/25 04:51:00;;;;;;;31.38;14.07;;;;;;;11.45;84.14;98697.75;5007244;28;20026;-68
2022/04/25 04:53:26;;;;;;;38.17;14.82;;;;;;;11.21;84.80;98689.16;4996312;28;20037;-68
2022/04/25 04:55:52;;;;;;;31.90;15.77;;;;;;;11.25;85.84;98694.84;5001149;28;20492;-68
2022/04/25 04:58:21;;;;;;;45.70;14.85;;;;;;;11.21;86.59;98703.16;5008194;28;20077;-70
2022/04/25 05:00:47;;;;;;;41.20;15.23;;;;;;;11.34;86.70;98708.69;4994777;28;20048;-68
2022/04/25 05:03:15;;;;;;;32.20;13.93;;;;;;;11.49;86.65;98710.69;4977035;28;20066;-69
2022/04/25 05:05:45;;;;;;;35.22;15.27;;;;;;;11.79;85.81;98723.44;5006288;28;20056;-69
2022/04/25 05:08:11;;;;;;;33.97;14.30;;;;;;;11.88;85.33;98746.50;5004454;28;20496;-70
2022/04/25 05:10:36;;;;;;;44.90;14.77;;;;;;;11.91;85.77;98739.34;4993551;28;20117;-70
2022/04/25 05:13:03;;;;;;;32.60;12.52;;;;;;;11.82;86.05;98744.31;4994368;28;20026;-69
2022/04/25 05:15:29;;;;;;;41.70;18.88;;;;;;;11.77;86.42;98751.00;4983302;28;20061;-70
2022/04/25 05:17:55;;;;;;;42.33;20.23;;;;;;;11.89;86.23;98770.53;4994522;28;20081;-71
2022/04/25 05:20:23;;;;;;;32.42;14.07;;;;;;;11.97;84.34;98784.72;4977105;28;20045;-69
2022/04/25 05:22:49;;;;;;;31.95;11.10;;;;;;;11.93;83.26;98790.25;4993905;28;20401;-68
2022/04/25 05:25:17;;;;;;;31.77;11.18;;;;;;;12.03;82.36;98791.72;5001537;28;20511;-69
2022/04/25 05:27:45;;;;;;;29.00;10.15;;;;;;;11.99;82.06;98783.19;4994861;28;20027;-69
2022/04/25 05:30:12;;;;;;;24.60;10.05;;;;;;;12.12;81.76;98795.16;5007812;28;20032;-68
2022/04/25 05:32:43;;;;;;;26.25;10.10;;;;;;;12.27;82.38;98812.31;5006457;28;20030;-69
2022/04/25 05:35:09;;;;;;;30.92;10.35;;;;;;;12.40;81.72;98807.44;4994402;28;20496;-68
2022/04/25 05:37:34;;;;;;;37.70;11.25;;;;;;;12.41;81.84;98814.69;4995162;28;20042;-69
2022/04/25 05:40:00;;;;;;;33.15;11.77;;;;;;;12.61;81.95;98807.13;5002830;28;20037;-69
2022/04/25 05:42:25;;;;;;;30.40;10.95;;;;;;;12.85;80.81;98811.72;5006618;28;20472;-69
2022/04/25 05:44:51;;;;;;;23.10;9.68;;;;;;;12.95;79.99;98815.91;4999444;28;20033;-70
2022/04/25 05:47:16;;;;;;;26.33;10.07;;;;;;;13.09;78.74;98809.78;4994024;28;20033;-69
2022/04/25 05:52:26;;;;;;;31.98;12.23;;;;;;;13.27;78.71;98809.38;4992489;28;20568;-69
2022/04/25 05:54:52;;;;;;;33.40;10.90;;;;;;;13.20;77.87;98802.41;5004751;28;20089;-72
2022/04/25 05:57:18;;;;;;;32.67;8.48;;;;;;;13.45;77.95;98809.75;5000717;28;20026;-71
2022/04/25 05:59:43;;;;;;;41.28;10.50;;;;;;;13.47;77.51;98811.03;4979566;28;20054;-73
2022/04/25 06:02:09;;;;;;;30.42;10.00;;;;;;;13.59;75.73;98806.44;4999720;28;20058;-71
2022/04/25 06:04:34;;;;;;;23.50;8.25;;;;;;;13.84;75.34;98798.44;4985818;28;20029;-71
2022/04/25 06:07:00;;;;;;;41.65;10.25;;;;;;;14.13;75.01;98809.41;4987454;28;20022;-74
2022/04/25 06:09:26;;;;;;;38.72;9.80;;;;;;;14.09;73.01;98802.91;4993248;28;20040;-72
2022/04/25 06:11:53;;;;;;;27.27;9.65;;;;;;;14.29;74.45;98798.81;4999244;28;20018;-74
2022/04/25 06:14:18;;;;;;;32.42;9.13;;;;;;;14.55;73.10;98794.41;4992090;28;20023;-73
2022/04/25 06:16:44;;;;;;;23.80;9.35;;;;;;;14.81;71.77;98797.63;4995568;28;20033;-74
2022/04/25 06:19:10;;;;;;;21.48;9.63;;;;;;;14.80;70.91;98790.38;4981545;28;20531;-77
2022/04/25 06:21:35;;;;;;;29.92;11.57;;;;;;;14.72;71.35;98795.09;4989454;28;20030;-73
2022/04/25 06:24:01;;;;;;;31.83;10.82;;;;;;;14.63;71.55;98800.97;5006807;28;20397;-73
2022/04/25 06:26:28;;;;;;;25.65;8.68;;;;;;;14.77;71.25;98802.41;4993330;28;20033;-73
2022/04/25 06:28:54;;;;;;;33.30;9.32;;;;;;;14.90;69.85;98806.59;4997999;28;20022;-73
2022/04/25 06:31:22;;;;;;;26.55;9.57;;;;;;;14.99;69.41;98793.06;5011691;28;20030;-73
2022/04/25 06:33:48;;;;;;;33.60;10.65;;;;;;;15.02;69.10;98781.03;4995327;28;20477;-74
2022/04/25 06:36:13;;;;;;;39.13;9.80;;;;;;;15.08;68.71;98783.50;4992611;28;20038;-70
2022/04/25 06:38:39;;;;;;;24.40;8.02;;;;;;;15.14;67.76;98784.78;5005724;28;20026;-70
2022/04/25 06:41:04;;;;;;;29.98;9.23;;;;;;;15.24;67.60;98786.94;5012587;28;20587;-69
2022/04/25 06:43:31;;;;;;;29.40;8.55;;;;;;;15.29;66.69;98783.75;5003345;28;20105;-71
2022/04/25 06:45:57;;;;;;;26.67;8.80;;;;;;;15.33;67.53;98775.38;4992975;28;20026;-71
2022/04/25 06:48:22;;;;;;;35.42;9.35;;;;;;;15.57;67.82;98784.50;4997001;28;20558;-71
2022/04/25 06:50:48;;;;;;;28.50;7.93;;;;;;;15.81;65.25;98791.59;4993520;28;20038;-71
2022/04/25 06:53:14;;;;;;;20.38;7.63;;;;;;;15.90;64.01;98787.66;4998349;28;20393;-70
2022/04/25 06:55:40;;;;;;;20.05;7.05;;;;;;;16.01;63.45;98785.75;4982004;28;20041;-70
2022/04/25 06:58:06;;;;;;;22.73;7.10;;;;;;;16.07;62.99;98783.41;4993227;28;20029;-69
2022/04/25 07:00:32;;;;;;;31.98;8.02;;;;;;;16.17;63.69;98776.22;4991830;28;20015;-70
2022/04/25 07:02:59;;;;;;;25.63;8.07;;;;;;;15.97;62.45;98776.47;4999151;28;20038;-70
2022/04/25 07:05:25;;;;;;;16.13;6.78;;;;;;;15.99;62.50;98776.88;5000044;28;20053;-68
2022/04/25 07:07:51;;;;;;;33.58;7.28;;;;;;;16.17;60.63;98779.03;4994468;28;20068;-71
2022/04/25 07:10:18;;;;;;;22.42;6.18;;;;;;;16.11;60.15;98768.13;5010009;28;20488;-70
2022/04/25 07:12:44;;;;;;;21.40;5.80;;;;;;;16.00;59.09;98779.31;4996442;28;20026;-70
2022/04/25 07:15:10;;;;;;;17.55;6.43;;;;;;;16.23;60.48;98777.50;5009533;28;20022;-69
2022/04/25 07:17:35;;;;;;;21.02;7.70;;;;;;;16.23;60.26;98769.03;5002973;28;20033;-71
2022/04/25 07:20:01;;;;;;;26.50;7.82;;;;;;;16.31;61.52;98765.06;4981160;28;20033;-72
2022/04/25 07:30:38;;;;;;;31.20;7.95;;;;;;;17.39;59.48;98756.38;4992108;28;20041;-71
2022/04/25 07:33:04;;;;;;;27.38;7.28;;;;;;;17.54;58.68;98757.25;4991780;28;20447;-70
2022/04/25 07:35:29;;;;;;;71.88;17.23;;;;;;;17.35;60.02;98746.28;4996195;28;20073;-71
2022/04/25 07:37:55;;;;;;;25.02;6.97;;;;;;;17.44;60.29;98746.72;4998771;28;20041;-71
2022/04/25 07:40:22;;;;;;;22.15;7.40;;;;;;;17.23;58.54;98742.59;4978226;28;20032;-69
2022/04/25 07:42:47;;;;;;;23.45;7.68;;;;;;;17.39;58.64;98744.28;5001148;28;20022;-71
2022/04/25 07:45:13;;;;;;;26.20;7.38;;;;;;;17.67;59.29;98748.38;4999514;28;20033;-70
2022/04/25 07:47:42;;;;;;;44.38;18.55;;;;;;;17.90;58.63;98733.06;5002511;28;20034;-74
2022/04/25 07:50:09;;;;;;;42.42;16.02;;;;;;;17.77;58.49;98741.94;5005479;28;20033;-70
2022/04/25 07:52:35;;;;;;;42.92;18.60;;;;;;;18.03;58.36;98733.50;4993547;28;20054;-70
2022/04/25 07:55:01;;;;;;;27.27;11.05;;;;;;;18.10;57.74;98728.66;5007112;28;20487;-69
2022/04/25 07:57:26;;;;;;;32.80;8.25;;;;;;;18.34;56.59;98723.41;4996602;28;20026;-69
2022/04/25 07:59:52;;;;;;;40.97;10.95;;;;;;;18.36;57.08;98731.47;4983912;28;20034;-73
2022/04/25 08:02:17;;;;;;;30.58;8.48;;;;;;;18.40;56.77;98732.25;4990336;28;20045;-68
2022/04/25 08:04:45;;;;;;;22.23;7.65;;;;;;;18.35;56.11;98727.84;5000940;28;20559;-71
2022/04/25 08:07:11;;;;;;;32.17;8.32;;;;;;;18.42;56.60;98724.19;5007461;28;20025;-72
2022/04/25 08:09:37;;;;;;;28.52;7.45;;;;;;;18.53;55.44;98715.66;4987914;28;20031;-73
2022/04/25 08:20:14;;;;;;;19.70;6.20;;;;;;;18.75;53.98;98707.91;4994762;28;20142;-72
2022/04/25 08:22:40;;;;;;;21.60;7.32;;;;;;;19.17;53.67;98705.34;4991813;28;20112;-69
2022/04/25 08:25:07;;;;;;;29.55;8.13;;;;;;;19.44;53.26;98696.31;4994852;28;20026;-72
2022/04/25 08:27:33;;;;;;;24.90;7.63;;;;;;;18.79;54.50;98688.06;4993866;28;20038;-72
2022/04/25 08:29:59;;;;;;;21.10;7.22;;;;;;;18.73;54.07;98706.72;4991849;28;20468;-70
2022/04/25 08:32:25;;;;;;;28.67;8.15;;;;;;;18.42;54.56;98701.53;4991526;28;20088;-70
2022/04/25 08:34:51;;;;;;;24.55;7.22;;;;;;;18.85;52.85;98689.28;4995360;28;20030;-71
2022/04/25 08:37:16;;;;;;;15.85;5.95;;;;;;;19.00;52.67;98700.56;5003755;28;20503;-72
2022/04/25 08:39:42;;;;;;;25.70;6.90;;;;;;;19.37;51.49;98693.50;5002724;28;20026;-73
2022/04/25 08:42:09;;;;;;;22.38;8.23;;;;;;;19.33;49.58;98690.69;5002139;28;20047;-70
2022/04/25 08:44:35;;;;;;;44.55;7.72;;;;;;;19.06;48.87;98690.41;4996907;28;20038;-73
2022/04/25 08:47:01;;;;;;;22.58;5.50;;;;;;;19.47;50.23;98683.31;4995790;28;20101;-70
2022/04/25 08:49:27;;;;;;;27.38;7.55;;;;;;;19.61;48.75;98679.56;4998010;28;20037;-69
2022/04/25 08:51:58;;;;;;;21.30;6.50;;;;;;;20.08;49.32;98681.28;4995651;28;20087;-72
2022/04/25 08:54:29;;;;;;;25.08;6.32;;;;;;;20.09;49.05;98683.69;5001133;28;20448;-70
2022/04/25 08:56:55;;;;;;;19.45;6.28;;;;;;;19.86;47.88;98675.75;5009463;28;20523;-71
2022/04/25 08:59:23;;;;;;;25.83;8.10;;;;;;;19.48;48.93;98665.88;5001562;28;20041;-70
2022/04/25 09:01:48;;;;;;;20.70;6.30;;;;;;;19.93;49.43;98655.84;4982805;28;20132;-72
2022/04/25 09:04:14;;;;;;;28.35;5.70;;;;;;;20.46;48.02;98650.88;4997413;28;20121;-70
2022/04/25 09:06:40;;;;;;;27.35;6.63;;;;;;;19.93;48.52;98655.84;4980745;28;20037;-70
2022/04/25 09:09:06;;;;;;;31.60;5.80;;;;;;;20.42;47.46;98649.31;5006133;28;20115;-70
2022/04/25 09:14:16;;;;;;;22.42;5.65;;;;;;;21.10;46.01;98647.66;5003190;28;20061;-70
2022/04/25 09:16:42;;;;;;;19.33;5.60;;;;;;;21.48;45.34;98654.44;4992549;28;20424;-70
2022/04/25 09:19:07;;;;;;;25.75;6.97;;;;;;;21.41;45.61;98647.66;4986276;28;20056;-70
2022/04/25 09:21:44;;;;;;;17.10;5.13;;;;;;;20.52;46.79;98653.25;5003202;28;20113;-70
2022/04/25 09:24:27;;;;;;;19.23;5.68;;;;;;;20.75;48.16;98644.84;5010052;28;20030;-69
2022/04/25 09:27:16;;;;;;;24.02;5.85;;;;;;;21.00;46.94;98637.28;5002641;28;20042;-68
2022/04/25 09:29:42;;;;;;;38.33;16.53;;;;;;;21.29;47.72;98626.28;5001455;28;20037;-67
2022/04/25 09:32:09;;;;;;;21.40;5.53;;;;;;;21.24;45.06;98625.97;4992355;28;20415;-68
2022/04/25 09:37:39;;;;;;;19.45;5.38;;;;;;;21.55;45.25;98620.22;4994965;28;20100;-68
2022/04/25 09:40:05;;;;;;;18.35;6.22;;;;;;;21.50;46.02;98617.88;5003081;28;20539;-69
2022/04/25 09:42:31;;;;;;;16.05;4.80;;;;;;;21.56;46.56;98614.09;5006103;28;20053;-68
2022/04/25 09:45:00;;;;;;;24.45;6.65;;;;;;;21.94;47.06;98610.22;5003850;28;20508;-68
2022/04/25 09:47:30;;;;;;;16.70;5.27;;;;;;;22.42;45.77;98613.00;5004005;28;20022;-68
2022/04/25 09:50:02;;;;;;;23.42;5.15;;;;;;;22.69;44.20;98609.28;4996922;28;20542;-68
2022/04/25 09:52:28;;;;;;;19.85;5.40;;;;;;;22.48;43.32;98601.91;4997822;28;20105;-69
2022/04/25 09:54:54;;;;;;;23.42;4.95;;;;;;;21.86;44.87;98605.94;4998095;28;20105;-69
2022/04/25 09:57:30;;;;;;;18.58;5.57;;;;;;;21.93;44.42;98602.16;5001384;28;20089;-69
2022/04/25 09:59:59;;;;;;;20.48;5.95;;;;;;;22.22;44.34;98599.56;5001849;28;20030;-68
2022/04/25 10:02:25;;;;;;;20.17;5.10;;;;;;;22.41;43.73;98600.81;4998452;28;20121;-69
2022/04/25 10:04:51;;;;;;;20.83;5.65;;;;;;;22.54;43.46;98598.16;5006957;28;20493;-68
2022/04/25 10:07:20;;;;;;;29.83;7.35;;;;;;;22.16;43.48;98595.59;5000443;28;20045;-70
2022/04/25 10:09:46;;;;;;;24.25;5.30;;;;;;;22.55;42.54;98596.91;4999813;28;20026;-70
2022/04/25 10:12:12;;;;;;;23.13;5.78;;;;;;;22.78;44.21;98603.75;4991663;28;20080;-69
2022/04/25 10:14:39;;;;;;;22.20;4.95;;;;;;;22.83;42.88;98593.88;4989121;28;20049;-70
2022/04/25 10:17:05;;;;;;;26.98;5.47;;;;;;;22.48;42.70;98596.22;5001898;28;20104;-70
2022/04/25 10:19:31;;;;;;;22.83;6.65;;;;;;;22.17;42.33;98580.13;4989822;28;20058;-70
2022/04/25 10:21:56;;;;;;;23.90;5.68;;;;;;;22.60;43.36;98583.41;4994966;28;20026;-70
2022/04/25 10:24:22;;;;;;;15.20;5.63;;;;;;;23.09;42.86;98594.13;5002703;28;20049;-70
2022/04/25 10:26:50;;;;;;;20.13;5.00;;;;;;;23.42;42.40;98580.78;5014137;28;20488;-69
2022/04/25 10:29:24;;;;;;;23.88;6.60;;;;;;;23.80;42.49;98590.81;5000618;28;20560;-70
2022/04/25 10:31:55;;;;;;;18.70;6.38;;;;;;;23.98;41.95;98578.94;5003814;28;20087;-70
2022/04/25 10:34:45;;;;;;;17.17;5.63;;;;;;;24.23;40.93;98580.34;4999859;28;20488;-69
2022/04/25 10:37:33;;;;;;;22.67;5.18;;;;;;;24.33;41.02;98583.34;4994404;28;20130;-69
2022/04/25 10:40:04;;;;;;;28.52;5.70;;;;;;;23.61;40.46;98577.47;4995762;28;20030;-69
2022/04/25 10:45:13;;;;;;;32.50;6.55;;;;;;;24.36;39.52;98571.81;4996554;28;20088;-70
2022/04/25 10:47:58;;;;;;;20.83;6.25;;;;;;;24.08;40.36;98567.72;5009162;28;20030;-69
2022/04/25 10:50:25;;;;;;;25.05;5.45;;;;;;;24.00;39.54;98571.97;4995232;28;20096;-69
2022/04/25 10:52:53;;;;;;;22.05;5.85;;;;;;;24.09;39.42;98570.13;5000261;28;20038;-69
2022/04/25 10:55:33;;;;;;;21.23;5.68;;;;;;;24.12;39.36;98562.69;5010402;28;20511;-69
2022/04/25 10:58:02;;;;;;;19.33;4.30;;;;;;;24.33;38.50;98566.19;4992862;28;20052;-69
2022/04/25 11:00:36;;;;;;;20.95;5.57;;;;;;;24.46;38.41;98557.69;4999048;28;20053;-70
2022/04/25 11:03:07;;;;;;;21.08;5.28;;;;;;;24.71;39.34;98559.78;4997582;28;20030;-70
2022/04/25 11:05:43;;;;;;;28.48;5.78;;;;;;;24.75;38.20;98556.81;4984537;28;21912;-69
2022/04/25 11:08:21;;;;;;;30.10;5.60;;;;;;;24.19;38.03;98553.94;5001013;28;20484;-72
2022/04/25 11:11:18;;;;;;;24.80;6.25;;;;;;;24.64;39.26;98551.44;5001669;28;20060;-69
2022/04/25 11:13:49;;;;;;;35.97;11.93;;;;;;;24.78;39.04;98544.50;5000373;28;20382;-69
2022/04/25 11:16:22;;;;;;;20.55;6.32;;;;;;;24.93;39.85;98547.72;4986021;28;20025;-69
2022/04/25 11:19:11;;;;;;;28.98;5.88;;;;;;;24.99;38.90;98554.50;4999338;28;20028;-69
2022/04/25 11:21:46;;;;;;;25.40;7.13;;;;;;;25.06;38.59;98553.47;4990902;28;20034;-71
2022/04/25 11:24:33;;;;;;;24.48;5.85;;;;;;;25.07;38.27;98538.69;4998199;28;20392;-70
2022/04/25 11:27:00;;;;;;;26.48;5.53;;;;;;;25.07;38.56;98535.84;5004615;28;20452;-70
2022/04/25 11:29:26;;;;;;;15.85;5.07;;;;;;;24.90;39.02;98531.50;4997357;28;20684;-69
2022/04/25 11:32:11;;;;;;;29.67;6.35;;;;;;;24.92;39.34;98531.81;4981796;28;20023;-70
2022/04/25 11:34:37;;;;;;;22.48;5.80;;;;;;;24.78;38.27;98539.59;4987964;28;20041;-71
2022/04/25 11:37:10;;;;;;;25.85;6.05;;;;;;;24.68;38.49;98540.69;4999702;28;20431;-70
2022/04/25 11:39:51;;;;;;;20.90;6.25;;;;;;;24.44;38.83;98529.56;4983065;28;20022;-70
2022/04/25 11:42:18;;;;;;;24.98;6.05;;;;;;;24.65;38.17;98533.81;5004615;28;20120;-70
2022/04/25 11:44:44;;;;;;;37.95;5.93;;;;;;;24.67;38.59;98534.16;5002334;28;20410;-69
2022/04/25 11:47:10;;;;;;;25.60;6.45;;;;;;;24.83;38.00;98525.97;5002461;28;20117;-69
2022/04/25 11:49:37;;;;;;;31.42;6.65;;;;;;;25.15;37.45;98533.53;5000140;28;21021;-70
2022/04/25 11:52:04;;;;;;;27.98;9.27;;;;;;;25.58;38.51;98525.66;4982153;28;20033;-69
2022/04/25 11:54:33;;;;;;;36.13;6.97;;;;;;;25.75;37.09;98529.13;5008835;28;20033;-69
2022/04/25 11:57:01;;;;;;;44.50;6.65;;;;;;;25.92;36.14;98517.50;4992802;28;20026;-70
2022/04/25 11:59:27;;;;;;;27.08;6.53;;;;;;;25.92;35.82;98517.50;4999347;28;20097;-71